createdAt,value
2022-12-12T00:00:22.867Z,26.88
2022-12-12T00:02:50.475Z,28.25
2022-12-12T00:05:18.758Z,26.55
2022-12-12T00:07:45.950Z,25.95
2022-12-12T00:10:12.939Z,23.80
2022-12-12T00:12:40.314Z,25.20
2022-12-12T00:15:08.262Z,25.27
2022-12-12T00:17:35.328Z,25.33
2022-12-12T00:20:02.294Z,23.65
2022-12-12T00:22:29.227Z,22.45
2022-12-12T00:24:56.148Z,22.98
2022-12-12T00:27:23.150Z,23.58
2022-12-12T00:29:54.295Z,22.05
2022-12-12T00:32:21.432Z,21.80
2022-12-12T00:34:48.353Z,21.25
2022-12-12T00:37:15.256Z,21.50
2022-12-12T00:39:42.478Z,21.17
2022-12-12T00:42:09.696Z,20.90
2022-12-12T00:44:36.639Z,20.42
2022-12-12T00:47:03.582Z,19.48
2022-12-12T00:49:30.846Z,18.85
2022-12-12T00:51:57.852Z,18.73
2022-12-12T00:54:24.925Z,18.88
2022-12-12T00:56:52.437Z,18.60
2022-12-12T00:59:19.879Z,18.38
2022-12-12T01:01:46.990Z,17.95
2022-12-12T01:04:14.027Z,17.92
2022-12-12T01:06:40.955Z,18.02
2022-12-12T01:09:08.082Z,18.17
2022-12-12T01:11:35.212Z,17.35
2022-12-12T01:14:02.304Z,16.45
2022-12-12T01:16:29.677Z,16.17
2022-12-12T01:18:56.745Z,17.02
2022-12-12T01:21:23.911Z,16.30
2022-12-12T01:23:51.181Z,16.60
2022-12-12T01:26:20.634Z,15.57
2022-12-12T01:28:48.151Z,15.75
2022-12-12T01:31:15.673Z,15.32
2022-12-12T01:33:46.408Z,15.02
2022-12-12T01:36:19.114Z,14.40
2022-12-12T01:38:47.202Z,14.82
2022-12-12T01:41:14.893Z,14.85
2022-12-12T01:43:42.034Z,14.40
2022-12-12T01:46:25.836Z,14.27
2022-12-12T01:48:59.530Z,13.65
2022-12-12T01:51:27.795Z,13.38
2022-12-12T01:54:03.591Z,13.23
2022-12-12T01:56:31.326Z,13.57
2022-12-12T01:58:59.893Z,13.38
2022-12-12T02:01:26.757Z,12.23
2022-12-12T02:03:53.720Z,11.70
2022-12-12T02:06:23.853Z,12.85
2022-12-12T02:08:53.812Z,12.48
2022-12-12T02:11:20.776Z,12.50
2022-12-12T02:13:47.810Z,11.63
2022-12-12T02:16:36.439Z,12.32
2022-12-12T02:19:32.509Z,11.73
2022-12-12T02:22:08.533Z,10.63
2022-12-12T02:25:01.467Z,11.88
2022-12-12T02:27:35.858Z,11.18
2022-12-12T02:30:07.912Z,10.75
2022-12-12T02:32:53.958Z,10.00
2022-12-12T02:35:41.988Z,10.25
2022-12-12T02:38:14.976Z,10.75
2022-12-12T02:41:15.524Z,9.95
2022-12-12T02:43:52.432Z,9.70
2022-12-12T02:46:32.730Z,9.48
2022-12-12T02:49:07.182Z,9.98
2022-12-12T02:51:35.006Z,9.15
2022-12-12T02:54:05.519Z,9.35
2022-12-12T02:56:54.894Z,9.57
2022-12-12T02:59:25.427Z,9.05
2022-12-12T03:02:11.851Z,9.60
2022-12-12T03:05:12.540Z,9.20
2022-12-12T03:08:03.041Z,8.77
2022-12-12T03:10:40.195Z,8.45
2022-12-12T03:13:07.088Z,7.97
2022-12-12T03:15:56.912Z,8.27
2022-12-12T03:18:34.245Z,8.32
2022-12-12T03:21:24.237Z,8.23
2022-12-12T03:23:58.986Z,8.23
2022-12-12T03:26:36.800Z,8.85
2022-12-12T03:29:10.764Z,7.95
2022-12-12T03:31:40.789Z,7.88
2022-12-12T03:34:12.821Z,7.75
2022-12-12T03:36:50.049Z,8.00
2022-12-12T03:39:36.189Z,7.15
2022-12-12T03:42:10.468Z,7.05
2022-12-12T03:44:44.057Z,7.35
2022-12-12T03:47:14.435Z,7.20
2022-12-12T03:49:52.299Z,7.28
2022-12-12T03:52:45.819Z,6.80
2022-12-12T03:55:17.054Z,6.82
2022-12-12T03:58:11.457Z,6.30
2022-12-12T04:00:39.905Z,6.28
2022-12-12T04:03:27.483Z,6.00
2022-12-12T04:06:27.216Z,6.22
2022-12-12T04:12:15.598Z,6.32
2022-12-12T04:15:20.566Z,6.22
2022-12-12T04:18:27.915Z,6.22
2022-12-12T04:22:07.480Z,6.10
2022-12-12T04:24:50.735Z,5.70
2022-12-12T04:27:31.477Z,5.60
2022-12-12T04:30:07.117Z,5.63
2022-12-12T04:32:53.222Z,5.93
2022-12-12T04:35:33.391Z,5.80
2022-12-12T04:38:09.993Z,5.40
2022-12-12T04:40:44.451Z,5.43
2022-12-12T04:43:17.177Z,5.65
2022-12-12T04:46:07.167Z,5.53
2022-12-12T04:49:03.499Z,5.25
2022-12-12T04:51:33.368Z,5.63
2022-12-12T04:54:12.071Z,5.57
2022-12-12T04:56:40.904Z,5.28
2022-12-12T04:59:08.548Z,4.87
2022-12-12T05:01:55.417Z,5.45
2022-12-12T05:04:32.212Z,5.20
2022-12-12T05:07:05.011Z,5.30
2022-12-12T05:09:31.981Z,4.68
2022-12-12T05:11:58.956Z,4.93
2022-12-12T05:14:25.862Z,5.05
2022-12-12T05:16:55.421Z,4.82
2022-12-12T05:19:22.360Z,4.88
2022-12-12T05:21:49.412Z,5.07
2022-12-12T05:24:16.311Z,5.45
2022-12-12T05:26:43.272Z,4.65
2022-12-12T05:29:10.209Z,5.18
2022-12-12T05:31:37.167Z,4.72
2022-12-12T05:34:04.941Z,4.50
2022-12-12T05:36:31.884Z,4.53
2022-12-12T05:38:58.803Z,4.88
2022-12-12T05:41:25.766Z,4.75
2022-12-12T05:43:52.689Z,4.22
2022-12-12T05:46:19.636Z,4.97
2022-12-12T05:48:50.616Z,4.55
2022-12-12T05:51:18.606Z,4.03
2022-12-12T05:53:45.677Z,4.22
2022-12-12T05:56:13.239Z,4.22
2022-12-12T05:58:40.710Z,4.20
2022-12-12T06:01:08.246Z,4.40
2022-12-12T06:03:35.610Z,3.80
2022-12-12T06:06:02.830Z,4.10
2022-12-12T06:08:29.943Z,4.25
2022-12-12T06:10:56.882Z,4.30
2022-12-12T06:13:23.856Z,4.25
2022-12-12T06:15:50.863Z,4.35
2022-12-12T06:18:17.904Z,4.15
2022-12-12T06:20:44.946Z,3.70
2022-12-12T06:23:11.824Z,4.00
2022-12-12T06:25:38.724Z,3.92
2022-12-12T06:28:05.876Z,4.68
2022-12-12T06:30:32.845Z,3.67
2022-12-12T06:32:59.743Z,4.20
2022-12-12T06:35:26.675Z,4.18
2022-12-12T06:37:53.619Z,4.00
2022-12-12T06:40:20.602Z,3.78
2022-12-12T06:42:48.703Z,3.67
2022-12-12T06:45:16.760Z,3.90
2022-12-12T06:47:43.774Z,3.83
2022-12-12T06:50:10.760Z,4.07
2022-12-12T06:52:37.641Z,4.22
2022-12-12T06:55:04.788Z,4.07
2022-12-12T06:57:31.674Z,3.28
2022-12-12T06:59:58.538Z,4.07
2022-12-12T07:02:29.633Z,3.78
2022-12-12T07:04:58.089Z,3.90
2022-12-12T07:07:25.096Z,3.78
2022-12-12T07:09:52.013Z,3.80
2022-12-12T07:12:18.873Z,4.30
2022-12-12T07:14:45.784Z,3.40
2022-12-12T07:17:12.696Z,3.63
2022-12-12T07:19:39.549Z,3.70
2022-12-12T07:22:10.241Z,3.67
2022-12-12T07:24:37.990Z,3.67
2022-12-12T07:27:05.220Z,3.85
2022-12-12T07:29:32.346Z,41.03
2022-12-12T07:31:59.259Z,67.47
2022-12-12T07:34:28.555Z,57.28
2022-12-12T07:37:02.366Z,60.40
2022-12-12T07:39:34.078Z,53.35
2022-12-12T07:42:01.025Z,51.42
2022-12-12T07:44:27.957Z,45.33
2022-12-12T07:46:57.176Z,42.63
2022-12-12T07:49:24.134Z,39.90
2022-12-12T07:51:51.084Z,37.08
2022-12-12T07:54:18.051Z,33.67
2022-12-12T07:56:44.928Z,31.70
2022-12-12T07:59:12.066Z,29.88
2022-12-12T08:01:39.316Z,28.00
2022-12-12T08:04:06.220Z,26.48
2022-12-12T08:06:33.106Z,25.90
2022-12-12T08:09:00.074Z,24.70
2022-12-12T08:11:27.008Z,23.42
2022-12-12T08:13:54.198Z,21.42
2022-12-12T08:16:23.756Z,21.60
2022-12-12T08:18:53.020Z,19.95
2022-12-12T08:21:25.099Z,19.48
2022-12-12T08:23:56.178Z,19.60
2022-12-12T08:26:23.195Z,19.02
2022-12-12T08:28:50.128Z,18.90
2022-12-12T08:31:18.153Z,18.08
2022-12-12T08:33:45.889Z,16.75
2022-12-12T08:36:19.696Z,16.30
2022-12-12T08:38:46.608Z,16.63
2022-12-12T08:41:14.537Z,15.07
2022-12-12T08:43:43.057Z,14.80
2022-12-12T08:46:17.048Z,14.95
2022-12-12T08:48:45.354Z,13.98
2022-12-12T08:51:12.247Z,13.98
2022-12-12T08:53:40.451Z,24.50
2022-12-12T08:56:07.750Z,44.80
2022-12-12T08:58:35.644Z,49.17
2022-12-12T09:01:02.945Z,47.22
2022-12-12T09:03:29.979Z,44.97
2022-12-12T09:05:56.924Z,39.10
2022-12-12T09:10:51.710Z,32.80
2022-12-12T09:13:20.119Z,31.15
2022-12-12T09:15:50.508Z,29.15
2022-12-12T09:18:17.773Z,27.83
2022-12-12T09:20:51.929Z,26.38
2022-12-12T09:23:19.806Z,24.17
2022-12-12T09:25:46.923Z,24.58
2022-12-12T09:28:15.594Z,24.08
2022-12-12T09:30:43.526Z,21.58
2022-12-12T09:33:11.037Z,20.98
2022-12-12T09:35:38.085Z,21.45
2022-12-12T09:38:08.232Z,38.58
2022-12-12T09:41:02.662Z,41.92
2022-12-12T09:43:33.739Z,38.85
2022-12-12T09:46:01.165Z,34.40
2022-12-12T09:48:28.093Z,32.92
2022-12-12T09:50:55.003Z,29.75
2022-12-12T09:55:55.792Z,25.55
2022-12-12T09:58:56.724Z,25.17
2022-12-12T10:01:24.095Z,24.35
2022-12-12T10:03:59.841Z,23.25
2022-12-12T10:06:37.421Z,21.35
2022-12-12T10:09:11.167Z,19.40
2022-12-12T10:11:54.667Z,19.70
2022-12-12T10:14:27.158Z,18.27
2022-12-12T10:16:57.968Z,18.30
2022-12-12T10:19:31.669Z,17.55
2022-12-12T10:22:06.653Z,20.27
2022-12-12T10:24:41.581Z,23.23
2022-12-12T10:27:13.531Z,23.58
2022-12-12T10:29:47.212Z,21.90
2022-12-12T10:32:35.824Z,19.98
2022-12-12T10:35:22.732Z,17.33
2022-12-12T10:38:25.321Z,16.95
2022-12-12T10:40:54.955Z,15.88
2022-12-12T10:43:26.418Z,15.25
2022-12-12T10:46:22.263Z,14.52
2022-12-12T10:48:49.627Z,13.85
2022-12-12T10:51:18.274Z,13.13
2022-12-12T10:53:45.532Z,13.05
2022-12-12T10:56:23.101Z,12.80
2022-12-12T10:58:58.473Z,12.75
2022-12-12T11:02:00.224Z,12.15
2022-12-12T11:04:15.899Z,11.68
2022-12-12T11:06:48.754Z,11.23
2022-12-12T11:09:27.963Z,10.40
2022-12-12T11:12:13.452Z,11.23
2022-12-12T11:14:41.591Z,10.73
2022-12-12T11:17:30.044Z,10.50
2022-12-12T11:19:58.712Z,10.15
2022-12-12T11:22:27.311Z,9.65
2022-12-12T11:24:54.371Z,9.38
2022-12-12T11:27:37.780Z,9.57
2022-12-12T11:30:29.396Z,9.73
2022-12-12T11:32:57.070Z,10.07
2022-12-12T11:35:25.959Z,9.30
2022-12-12T11:37:56.835Z,8.70
2022-12-12T11:40:43.668Z,8.95
2022-12-12T11:43:27.147Z,8.88
2022-12-12T11:46:00.137Z,9.32
2022-12-12T11:48:35.993Z,9.25
2022-12-12T11:51:03.206Z,9.02
2022-12-12T11:53:30.189Z,8.95
2022-12-12T11:56:04.642Z,8.90
2022-12-12T11:58:38.008Z,8.50
2022-12-12T12:01:30.647Z,8.35
2022-12-12T12:04:10.656Z,7.63
2022-12-12T12:07:01.820Z,7.72
2022-12-12T12:10:08.765Z,8.02
2022-12-12T12:12:51.053Z,7.78
2022-12-12T12:15:24.576Z,8.15
2022-12-12T12:18:24.998Z,7.65
2022-12-12T12:21:17.741Z,7.80
2022-12-12T12:23:54.218Z,7.82
2022-12-12T12:26:49.877Z,7.40
2022-12-12T12:29:53.976Z,8.07
2022-12-12T12:32:45.898Z,7.50
2022-12-12T12:35:30.460Z,7.78
2022-12-12T12:38:15.800Z,6.85
2022-12-12T12:41:14.712Z,7.00
2022-12-12T12:44:31.955Z,7.10
2022-12-12T12:47:07.753Z,7.00
2022-12-12T12:49:39.805Z,6.78
2022-12-12T12:52:15.711Z,6.40
2022-12-12T12:54:46.041Z,6.63
2022-12-12T12:57:32.808Z,29.13
2022-12-12T13:00:04.987Z,55.30
2022-12-12T13:02:57.506Z,58.40
2022-12-12T13:05:40.371Z,50.90
2022-12-12T13:08:14.603Z,46.90
2022-12-12T13:10:46.320Z,42.85
2022-12-12T13:16:07.786Z,34.95
2022-12-12T13:18:45.183Z,32.75
2022-12-12T13:21:40.399Z,29.73
2022-12-12T13:24:29.488Z,27.67
2022-12-12T13:27:21.012Z,25.13
2022-12-12T13:29:51.311Z,23.45
2022-12-12T13:32:36.454Z,22.50
2022-12-12T13:35:16.790Z,20.65
2022-12-12T13:37:50.771Z,20.23
2022-12-12T13:40:32.758Z,19.33
2022-12-12T13:43:09.148Z,17.50
2022-12-12T13:45:46.018Z,31.10
2022-12-12T13:48:28.114Z,43.58
2022-12-12T13:51:27.439Z,46.55
2022-12-12T13:54:13.700Z,43.55
2022-12-12T13:56:45.993Z,38.47
2022-12-12T13:59:27.905Z,36.67
2022-12-12T14:02:02.370Z,33.20
2022-12-12T14:04:37.653Z,31.13
2022-12-12T14:07:12.350Z,30.73
2022-12-12T14:09:49.343Z,28.75
2022-12-12T14:12:37.577Z,27.80
2022-12-12T14:15:07.863Z,26.60
2022-12-12T14:17:42.289Z,25.00
2022-12-12T14:20:31.702Z,26.00
2022-12-12T14:23:25.391Z,24.65
2022-12-12T14:25:52.928Z,22.90
2022-12-12T14:28:31.521Z,21.08
2022-12-12T14:31:06.236Z,20.83
2022-12-12T14:33:52.758Z,21.58
2022-12-12T14:36:42.856Z,20.10
2022-12-12T14:39:44.656Z,20.30
2022-12-12T14:43:18.965Z,18.63
2022-12-12T14:45:28.600Z,18.30
2022-12-12T14:48:21.569Z,18.92
2022-12-12T14:51:09.559Z,18.45
2022-12-12T14:53:39.303Z,18.52
2022-12-12T14:56:40.528Z,17.73
2022-12-12T14:59:28.912Z,20.30
2022-12-12T15:02:01.271Z,34.10
2022-12-12T15:04:31.830Z,32.65
2022-12-12T15:07:00.576Z,30.23
2022-12-12T15:09:36.104Z,29.57
2022-12-12T15:12:16.305Z,28.30
2022-12-12T15:14:49.590Z,27.50
2022-12-12T15:17:33.188Z,25.77
2022-12-12T15:20:06.097Z,24.77
2022-12-12T15:22:35.646Z,24.55
2022-12-12T15:25:15.997Z,24.65
2022-12-12T15:27:52.151Z,21.85
2022-12-12T15:30:24.872Z,20.48
2022-12-12T15:35:21.223Z,21.45
2022-12-12T15:38:02.552Z,20.95
2022-12-12T15:40:31.383Z,18.98
2022-12-12T15:43:04.213Z,18.42
2022-12-12T15:45:34.698Z,19.80
2022-12-12T15:48:01.953Z,17.83
2022-12-12T15:50:58.074Z,17.83
2022-12-12T15:53:31.673Z,17.88
2022-12-12T15:55:58.666Z,17.20
2022-12-12T15:58:35.148Z,16.58
2022-12-12T16:01:20.839Z,15.75
2022-12-12T16:04:04.266Z,25.10
2022-12-12T16:06:43.378Z,55.85
2022-12-12T16:09:24.109Z,57.75
2022-12-12T16:11:56.712Z,55.53
2022-12-12T16:14:39.585Z,51.08
2022-12-12T16:17:25.409Z,46.45
2022-12-12T16:19:56.326Z,41.38
2022-12-12T16:22:32.579Z,39.92
2022-12-12T16:25:26.602Z,36.78
2022-12-12T16:28:25.069Z,35.70
2022-12-12T16:31:01.179Z,33.55
2022-12-12T16:33:35.840Z,31.27
2022-12-12T16:36:11.120Z,31.20
2022-12-12T16:38:40.211Z,29.40
2022-12-12T16:41:11.280Z,27.17
2022-12-12T16:43:39.354Z,25.75
2022-12-12T16:46:06.551Z,24.98
2022-12-12T16:48:35.803Z,23.88
2022-12-12T16:51:05.441Z,23.88
2022-12-12T16:55:59.390Z,20.75
2022-12-12T16:58:26.314Z,22.02
2022-12-12T17:00:53.501Z,21.42
2022-12-12T17:03:21.299Z,20.45
2022-12-12T17:05:48.783Z,19.63
2022-12-12T17:08:16.727Z,19.23
2022-12-12T17:10:44.905Z,18.60
2022-12-12T17:13:16.924Z,19.30
2022-12-12T17:15:44.082Z,19.10
2022-12-12T17:18:11.201Z,17.75
2022-12-12T17:20:38.283Z,17.42
2022-12-12T17:25:50.780Z,17.58
2022-12-12T17:28:19.215Z,17.58
2022-12-12T17:30:47.566Z,16.58
2022-12-12T17:35:45.135Z,15.68
2022-12-12T17:38:16.178Z,15.93
2022-12-12T17:40:44.290Z,16.23
2022-12-12T17:43:11.163Z,15.73
2022-12-12T17:45:38.070Z,16.02
2022-12-12T17:48:05.423Z,16.27
2022-12-12T17:50:35.959Z,15.43
2022-12-12T17:53:06.789Z,14.23
2022-12-12T17:55:53.975Z,25.60
2022-12-12T17:58:23.812Z,19.60
2022-12-12T18:00:53.503Z,21.80
2022-12-12T18:03:20.409Z,93.82
2022-12-12T18:05:47.266Z,108.57
2022-12-12T18:08:14.174Z,107.03
2022-12-12T18:10:41.137Z,105.18
2022-12-12T18:13:08.118Z,101.70
2022-12-12T18:15:34.993Z,97.72
2022-12-12T18:18:01.954Z,94.22
2022-12-12T18:20:31.484Z,91.18
2022-12-12T18:25:25.390Z,87.70
2022-12-12T18:27:52.664Z,83.45
2022-12-12T18:30:19.556Z,85.85
2022-12-12T18:32:46.464Z,74.90
2022-12-12T18:35:13.535Z,74.68
2022-12-12T18:37:40.395Z,72.15
2022-12-12T18:40:07.781Z,66.85
2022-12-12T18:42:34.647Z,65.47
2022-12-12T18:45:01.514Z,59.67
2022-12-12T18:47:28.418Z,53.75
2022-12-12T18:52:22.428Z,49.15
2022-12-12T18:54:49.801Z,49.42
2022-12-12T18:57:16.750Z,48.75
2022-12-12T18:59:43.608Z,47.90
2022-12-12T19:02:14.078Z,46.30
2022-12-12T19:04:44.283Z,57.47
2022-12-12T19:07:11.742Z,58.92
2022-12-12T19:09:38.719Z,56.92
2022-12-12T19:12:06.083Z,62.47
2022-12-12T19:14:59.789Z,59.78
2022-12-12T19:17:25.905Z,56.10
2022-12-12T19:19:54.092Z,50.85
2022-12-12T19:25:09.764Z,52.67
2022-12-12T19:27:36.658Z,49.35
2022-12-12T19:30:04.660Z,46.00
2022-12-12T19:32:31.547Z,46.85
2022-12-12T19:34:59.488Z,45.90
2022-12-12T19:37:26.394Z,43.33
2022-12-12T19:39:53.495Z,39.30
2022-12-12T19:42:21.054Z,38.13
2022-12-12T19:44:47.959Z,40.33
2022-12-12T19:47:16.840Z,38.75
2022-12-12T19:49:43.786Z,37.35
2022-12-12T19:52:14.109Z,35.13
2022-12-12T19:54:41.507Z,35.17
2022-12-12T19:57:08.404Z,35.05
2022-12-12T19:59:35.291Z,34.30
2022-12-12T20:02:02.776Z,34.70
2022-12-12T20:04:30.410Z,33.63
2022-12-12T20:06:57.645Z,32.50
2022-12-12T20:09:26.861Z,34.83
2022-12-12T20:11:54.610Z,38.00
2022-12-12T20:14:24.215Z,56.00
2022-12-12T20:19:19.089Z,60.50
2022-12-12T20:22:03.537Z,52.83
2022-12-12T20:24:32.243Z,49.13
2022-12-12T20:26:59.933Z,47.95
2022-12-12T20:29:27.558Z,43.67
2022-12-12T20:31:54.447Z,42.85
2022-12-12T20:34:22.646Z,39.92
2022-12-12T20:36:50.459Z,38.28
2022-12-12T20:39:22.313Z,37.45
2022-12-12T20:41:50.596Z,36.60
2022-12-12T20:44:17.571Z,36.47
2022-12-12T20:46:46.211Z,35.97
2022-12-12T20:49:15.963Z,34.13
2022-12-12T20:51:55.310Z,35.40
2022-12-12T20:54:24.390Z,34.50
2022-12-12T20:56:52.419Z,33.33
2022-12-12T20:59:19.395Z,32.17
2022-12-12T21:01:47.436Z,31.88
2022-12-12T21:04:15.349Z,30.52
2022-12-12T21:06:44.791Z,30.77
2022-12-12T21:09:17.672Z,30.67
2022-12-12T21:11:46.438Z,29.63
2022-12-12T21:14:13.442Z,29.67
2022-12-12T21:16:40.474Z,29.88
2022-12-12T21:19:11.329Z,29.73
2022-12-12T21:21:43.236Z,28.30
2022-12-12T21:24:15.657Z,27.40
2022-12-12T21:26:42.992Z,27.65
2022-12-12T21:29:09.959Z,26.75
2022-12-12T21:31:42.338Z,26.40
2022-12-12T21:34:13.605Z,37.70
2022-12-12T21:36:40.579Z,68.30
2022-12-12T21:39:07.796Z,68.82
2022-12-12T21:41:35.383Z,62.78
2022-12-12T21:44:02.432Z,59.45
2022-12-12T21:46:29.966Z,55.30
2022-12-12T21:49:16.696Z,52.20
2022-12-12T21:51:43.747Z,47.55
2022-12-12T21:54:11.795Z,45.15
2022-12-12T21:56:38.995Z,42.47
2022-12-12T21:59:06.261Z,40.50
2022-12-12T22:01:33.478Z,38.72
2022-12-12T22:04:01.213Z,37.03
2022-12-12T22:06:33.597Z,36.30
2022-12-12T22:09:02.394Z,35.70
2022-12-12T22:11:40.935Z,32.28
2022-12-12T22:14:18.612Z,32.85
2022-12-12T22:16:45.628Z,30.83
2022-12-12T22:19:14.375Z,29.90
2022-12-12T22:21:41.591Z,34.93
2022-12-12T22:24:08.866Z,31.13
2022-12-12T22:26:41.315Z,40.80
2022-12-12T22:29:11.527Z,40.10
2022-12-12T22:31:39.086Z,39.55
2022-12-12T22:34:08.319Z,39.25
2022-12-12T22:36:37.759Z,35.47
2022-12-12T22:39:06.764Z,35.45
2022-12-12T22:41:33.776Z,32.90
2022-12-12T22:44:02.690Z,34.17
2022-12-12T22:46:29.716Z,31.83
2022-12-12T22:48:59.264Z,30.88
2022-12-12T22:51:35.204Z,29.30
2022-12-12T22:54:04.233Z,28.60
2022-12-12T22:56:32.931Z,28.63
2022-12-12T22:59:00.370Z,26.33
2022-12-12T23:01:28.165Z,26.85
2022-12-12T23:03:55.822Z,26.83
2022-12-12T23:06:34.027Z,24.55
2022-12-12T23:09:03.663Z,25.77
2022-12-12T23:14:04.136Z,23.70
2022-12-12T23:16:31.299Z,23.85
2022-12-12T23:18:59.221Z,23.80
2022-12-12T23:21:26.835Z,24.13
2022-12-12T23:23:55.423Z,22.63
2022-12-12T23:26:24.777Z,22.77
2022-12-12T23:28:52.058Z,22.30
2022-12-12T23:31:24.676Z,21.42
2022-12-12T23:33:57.661Z,22.35
2022-12-12T23:36:25.453Z,20.95
2022-12-12T23:39:04.653Z,21.13
2022-12-12T23:41:31.626Z,20.15
2022-12-12T23:43:58.760Z,19.75
2022-12-12T23:46:29.109Z,34.47
2022-12-12T23:48:57.523Z,37.38
2022-12-12T23:51:26.200Z,38.38
2022-12-12T23:53:58.365Z,42.67
2022-12-12T23:56:26.362Z,42.63
2022-12-12T23:58:54.089Z,42.17
